sensor_id;sensor_type;location;lat;lon;timestamp;P1;durP1;ratioP1;P2;durP2;ratioP2
18748;SDS011;9503;53.560;10.246;2022-08-03T00:00:57;12.55;;;4.15;;
18748;SDS011;9503;53.560;10.246;2022-08-03T00:03:23;9.85;;;4.55;;
18748;SDS011;9503;53.560;10.246;2022-08-03T00:05:52;10.77;;;4.18;;
18748;SDS011;9503;53.560;10.246;2022-08-03T00:08:18;10.75;;;4.30;;
18748;SDS011;9503;53.560;10.246;2022-08-03T00:10:45;10.15;;;4.53;;
18748;SDS011;9503;53.560;10.246;2022-08-03T00:13:12;7.78;;;4.22;;
18748;SDS011;9503;53.560;10.246;2022-08-03T00:15:39;11.85;;;3.80;;
18748;SDS011;9503;53.560;10.246;2022-08-03T00:18:06;6.78;;;3.70;;
18748;SDS011;9503;53.560;10.246;2022-08-03T00:20:35;4.30;;;3.40;;
18748;SDS011;9503;53.560;10.246;2022-08-03T00:23:04;6.50;;;4.05;;
18748;SDS011;9503;53.560;10.246;2022-08-03T00:25:31;5.18;;;3.70;;
18748;SDS011;9503;53.560;10.246;2022-08-03T00:27:59;7.22;;;3.72;;
18748;SDS011;9503;53.560;10.246;2022-08-03T00:30:26;5.40;;;3.88;;
18748;SDS011;9503;53.560;10.246;2022-08-03T00:32:53;5.35;;;3.80;;
18748;SDS011;9503;53.560;10.246;2022-08-03T00:35:20;4.10;;;3.60;;
18748;SDS011;9503;53.560;10.246;2022-08-03T00:37:47;4.63;;;4.20;;
18748;SDS011;9503;53.560;10.246;2022-08-03T00:40:15;5.05;;;3.97;;
18748;SDS011;9503;53.560;10.246;2022-08-03T00:42:53;3.92;;;3.60;;
18748;SDS011;9503;53.560;10.246;2022-08-03T00:45:21;7.65;;;4.00;;
18748;SDS011;9503;53.560;10.246;2022-08-03T00:47:50;4.78;;;3.60;;
18748;SDS011;9503;53.560;10.246;2022-08-03T00:50:17;7.75;;;3.90;;
18748;SDS011;9503;53.560;10.246;2022-08-03T00:52:47;7.38;;;3.70;;
18748;SDS011;9503;53.560;10.246;2022-08-03T00:55:15;4.30;;;3.47;;
18748;SDS011;9503;53.560;10.246;2022-08-03T00:57:42;4.05;;;3.65;;
18748;SDS011;9503;53.560;10.246;2022-08-03T01:00:10;4.68;;;3.65;;
18748;SDS011;9503;53.560;10.246;2022-08-03T01:02:39;4.50;;;3.88;;
18748;SDS011;9503;53.560;10.246;2022-08-03T01:05:06;3.92;;;3.53;;
18748;SDS011;9503;53.560;10.246;2022-08-03T01:07:40;5.45;;;3.75;;
18748;SDS011;9503;53.560;10.246;2022-08-03T01:10:20;6.22;;;3.97;;
18748;SDS011;9503;53.560;10.246;2022-08-03T01:12:56;7.85;;;4.05;;
18748;SDS011;9503;53.560;10.246;2022-08-03T01:15:28;4.30;;;3.50;;
18748;SDS011;9503;53.560;10.246;2022-08-03T01:18:02;6.65;;;3.80;;
18748;SDS011;9503;53.560;10.246;2022-08-03T01:20:36;4.78;;;3.63;;
18748;SDS011;9503;53.560;10.246;2022-08-03T01:23:09;4.80;;;3.95;;
18748;SDS011;9503;53.560;10.246;2022-08-03T01:26:02;7.03;;;4.25;;
18748;SDS011;9503;53.560;10.246;2022-08-03T01:28:48;4.82;;;3.42;;
18748;SDS011;9503;53.560;10.246;2022-08-03T01:31:31;7.95;;;4.57;;
18748;SDS011;9503;53.560;10.246;2022-08-03T01:34:02;4.90;;;4.10;;
18748;SDS011;9503;53.560;10.246;2022-08-03T01:36:34;6.38;;;4.07;;
18748;SDS011;9503;53.560;10.246;2022-08-03T01:39:07;6.25;;;4.60;;
18748;SDS011;9503;53.560;10.246;2022-08-03T01:41:35;6.93;;;4.05;;
18748;SDS011;9503;53.560;10.246;2022-08-03T01:44:08;4.55;;;4.15;;
18748;SDS011;9503;53.560;10.246;2022-08-03T01:46:38;7.63;;;4.20;;
18748;SDS011;9503;53.560;10.246;2022-08-03T01:49:06;9.02;;;4.55;;
18748;SDS011;9503;53.560;10.246;2022-08-03T01:51:35;7.65;;;4.63;;
18748;SDS011;9503;53.560;10.246;2022-08-03T01:54:04;4.57;;;4.18;;
18748;SDS011;9503;53.560;10.246;2022-08-03T01:56:32;7.55;;;4.65;;
18748;SDS011;9503;53.560;10.246;2022-08-03T01:59:02;5.32;;;4.05;;
18748;SDS011;9503;53.560;10.246;2022-08-03T02:01:30;5.90;;;4.57;;
18748;SDS011;9503;53.560;10.246;2022-08-03T02:03:59;6.10;;;4.72;;
18748;SDS011;9503;53.560;10.246;2022-08-03T02:06:26;5.07;;;4.65;;
18748;SDS011;9503;53.560;10.246;2022-08-03T02:08:57;10.57;;;4.43;;
18748;SDS011;9503;53.560;10.246;2022-08-03T02:11:25;5.63;;;4.70;;
18748;SDS011;9503;53.560;10.246;2022-08-03T02:13:52;5.90;;;4.90;;
18748;SDS011;9503;53.560;10.246;2022-08-03T02:16:21;9.48;;;5.32;;
18748;SDS011;9503;53.560;10.246;2022-08-03T02:18:49;6.65;;;4.60;;
18748;SDS011;9503;53.560;10.246;2022-08-03T02:21:19;7.78;;;5.07;;
18748;SDS011;9503;53.560;10.246;2022-08-03T02:23:47;6.22;;;4.97;;
18748;SDS011;9503;53.560;10.246;2022-08-03T02:26:14;7.63;;;4.97;;
18748;SDS011;9503;53.560;10.246;2022-08-03T02:28:46;6.78;;;4.93;;
18748;SDS011;9503;53.560;10.246;2022-08-03T02:31:18;9.82;;;5.63;;
18748;SDS011;9503;53.560;10.246;2022-08-03T02:33:49;7.53;;;5.32;;
18748;SDS011;9503;53.560;10.246;2022-08-03T02:36:23;7.45;;;4.72;;
18748;SDS011;9503;53.560;10.246;2022-08-03T02:38:54;10.10;;;5.10;;
18748;SDS011;9503;53.560;10.246;2022-08-03T02:41:30;7.45;;;5.18;;
18748;SDS011;9503;53.560;10.246;2022-08-03T02:44:01;7.93;;;5.30;;
18748;SDS011;9503;53.560;10.246;2022-08-03T02:46:32;11.85;;;5.68;;
18748;SDS011;9503;53.560;10.246;2022-08-03T02:49:03;8.07;;;5.22;;
18748;SDS011;9503;53.560;10.246;2022-08-03T02:51:34;8.57;;;5.30;;
18748;SDS011;9503;53.560;10.246;2022-08-03T02:54:02;7.60;;;5.28;;
18748;SDS011;9503;53.560;10.246;2022-08-03T02:56:32;12.57;;;6.57;;
18748;SDS011;9503;53.560;10.246;2022-08-03T02:59:03;10.18;;;6.20;;
18748;SDS011;9503;53.560;10.246;2022-08-03T03:01:31;7.07;;;6.30;;
18748;SDS011;9503;53.560;10.246;2022-08-03T03:03:58;8.27;;;6.32;;
18748;SDS011;9503;53.560;10.246;2022-08-03T03:06:26;11.32;;;5.90;;
18748;SDS011;9503;53.560;10.246;2022-08-03T03:08:55;5.40;;;5.00;;
18748;SDS011;9503;53.560;10.246;2022-08-03T03:11:22;9.50;;;6.32;;
18748;SDS011;9503;53.560;10.246;2022-08-03T03:13:51;8.75;;;5.70;;
18748;SDS011;9503;53.560;10.246;2022-08-03T03:16:19;5.75;;;5.20;;
18748;SDS011;9503;53.560;10.246;2022-08-03T03:18:47;8.18;;;5.68;;
18748;SDS011;9503;53.560;10.246;2022-08-03T03:21:15;10.48;;;5.47;;
18748;SDS011;9503;53.560;10.246;2022-08-03T03:23:44;7.43;;;5.40;;
18748;SDS011;9503;53.560;10.246;2022-08-03T03:26:13;6.30;;;5.32;;
18748;SDS011;9503;53.560;10.246;2022-08-03T03:28:41;8.15;;;5.07;;
18748;SDS011;9503;53.560;10.246;2022-08-03T03:31:09;5.88;;;5.38;;
18748;SDS011;9503;53.560;10.246;2022-08-03T03:33:36;10.18;;;5.60;;
18748;SDS011;9503;53.560;10.246;2022-08-03T03:36:03;7.57;;;5.72;;
18748;SDS011;9503;53.560;10.246;2022-08-03T03:38:30;7.72;;;5.70;;
18748;SDS011;9503;53.560;10.246;2022-08-03T03:40:58;7.28;;;5.55;;
18748;SDS011;9503;53.560;10.246;2022-08-03T03:43:26;5.68;;;5.18;;
18748;SDS011;9503;53.560;10.246;2022-08-03T03:45:54;8.65;;;5.72;;
18748;SDS011;9503;53.560;10.246;2022-08-03T03:48:22;6.35;;;5.72;;
18748;SDS011;9503;53.560;10.246;2022-08-03T03:50:50;6.75;;;5.43;;
18748;SDS011;9503;53.560;10.246;2022-08-03T03:53:16;5.93;;;5.43;;
18748;SDS011;9503;53.560;10.246;2022-08-03T03:55:44;8.98;;;5.38;;
18748;SDS011;9503;53.560;10.246;2022-08-03T03:58:10;6.18;;;5.57;;
18748;SDS011;9503;53.560;10.246;2022-08-03T04:00:38;9.00;;;5.28;;
18748;SDS011;9503;53.560;10.246;2022-08-03T04:03:06;6.97;;;5.47;;
18748;SDS011;9503;53.560;10.246;2022-08-03T04:05:35;7.90;;;6.18;;
18748;SDS011;9503;53.560;10.246;2022-08-03T04:08:20;6.15;;;5.55;;
18748;SDS011;9503;53.560;10.246;2022-08-03T04:11:06;6.55;;;5.20;;
18748;SDS011;9503;53.560;10.246;2022-08-03T04:13:38;6.95;;;5.78;;
18748;SDS011;9503;53.560;10.246;2022-08-03T04:16:09;8.70;;;5.28;;
18748;SDS011;9503;53.560;10.246;2022-08-03T04:18:40;5.78;;;5.28;;
18748;SDS011;9503;53.560;10.246;2022-08-03T04:21:11;10.23;;;5.30;;
18748;SDS011;9503;53.560;10.246;2022-08-03T04:23:41;6.45;;;5.57;;
18748;SDS011;9503;53.560;10.246;2022-08-03T04:26:12;6.05;;;5.50;;
18748;SDS011;9503;53.560;10.246;2022-08-03T04:28:40;7.55;;;6.40;;
18748;SDS011;9503;53.560;10.246;2022-08-03T04:31:11;6.78;;;5.35;;
18748;SDS011;9503;53.560;10.246;2022-08-03T04:33:40;7.00;;;5.32;;
18748;SDS011;9503;53.560;10.246;2022-08-03T04:36:10;7.65;;;5.00;;
18748;SDS011;9503;53.560;10.246;2022-08-03T04:38:43;5.35;;;4.95;;
18748;SDS011;9503;53.560;10.246;2022-08-03T04:41:18;5.72;;;5.10;;
18748;SDS011;9503;53.560;10.246;2022-08-03T04:43:46;6.40;;;5.80;;
18748;SDS011;9503;53.560;10.246;2022-08-03T04:46:16;7.72;;;5.20;;
18748;SDS011;9503;53.560;10.246;2022-08-03T04:48:47;8.57;;;5.43;;
18748;SDS011;9503;53.560;10.246;2022-08-03T04:51:14;9.10;;;5.38;;
18748;SDS011;9503;53.560;10.246;2022-08-03T04:53:42;6.97;;;5.63;;
18748;SDS011;9503;53.560;10.246;2022-08-03T04:56:09;9.38;;;5.68;;
18748;SDS011;9503;53.560;10.246;2022-08-03T04:58:36;5.70;;;5.13;;
18748;SDS011;9503;53.560;10.246;2022-08-03T05:01:03;7.47;;;5.43;;
18748;SDS011;9503;53.560;10.246;2022-08-03T05:03:31;9.00;;;5.13;;
18748;SDS011;9503;53.560;10.246;2022-08-03T05:05:58;13.60;;;5.90;;
18748;SDS011;9503;53.560;10.246;2022-08-03T05:08:25;5.95;;;5.45;;
18748;SDS011;9503;53.560;10.246;2022-08-03T05:10:51;6.57;;;5.47;;
18748;SDS011;9503;53.560;10.246;2022-08-03T05:13:18;9.25;;;5.63;;
18748;SDS011;9503;53.560;10.246;2022-08-03T05:15:45;6.13;;;5.20;;
18748;SDS011;9503;53.560;10.246;2022-08-03T05:18:15;6.30;;;5.40;;
18748;SDS011;9503;53.560;10.246;2022-08-03T05:20:43;6.07;;;5.50;;
18748;SDS011;9503;53.560;10.246;2022-08-03T05:23:10;4.93;;;4.53;;
18748;SDS011;9503;53.560;10.246;2022-08-03T05:25:37;7.55;;;5.22;;
18748;SDS011;9503;53.560;10.246;2022-08-03T05:28:03;6.00;;;5.05;;
18748;SDS011;9503;53.560;10.246;2022-08-03T05:30:30;9.80;;;5.68;;
18748;SDS011;9503;53.560;10.246;2022-08-03T05:32:57;7.80;;;5.00;;
18748;SDS011;9503;53.560;10.246;2022-08-03T05:35:25;7.22;;;5.03;;
18748;SDS011;9503;53.560;10.246;2022-08-03T05:37:54;7.07;;;5.03;;
18748;SDS011;9503;53.560;10.246;2022-08-03T05:40:20;6.90;;;4.70;;
18748;SDS011;9503;53.560;10.246;2022-08-03T05:42:47;4.97;;;4.20;;
18748;SDS011;9503;53.560;10.246;2022-08-03T05:45:14;5.47;;;4.57;;
18748;SDS011;9503;53.560;10.246;2022-08-03T05:47:42;6.15;;;4.90;;
18748;SDS011;9503;53.560;10.246;2022-08-03T05:50:09;5.13;;;4.00;;
18748;SDS011;9503;53.560;10.246;2022-08-03T05:52:37;8.88;;;4.45;;
18748;SDS011;9503;53.560;10.246;2022-08-03T05:55:06;5.93;;;4.75;;
18748;SDS011;9503;53.560;10.246;2022-08-03T05:57:33;4.65;;;4.07;;
18748;SDS011;9503;53.560;10.246;2022-08-03T06:00:00;4.05;;;3.63;;
18748;SDS011;9503;53.560;10.246;2022-08-03T06:02:28;7.60;;;4.40;;
18748;SDS011;9503;53.560;10.246;2022-08-03T06:04:55;5.05;;;4.40;;
18748;SDS011;9503;53.560;10.246;2022-08-03T06:07:21;5.75;;;4.20;;
18748;SDS011;9503;53.560;10.246;2022-08-03T06:09:48;9.73;;;3.75;;
18748;SDS011;9503;53.560;10.246;2022-08-03T06:12:17;4.15;;;3.75;;
18748;SDS011;9503;53.560;10.246;2022-08-03T06:14:44;5.35;;;4.10;;
18748;SDS011;9503;53.560;10.246;2022-08-03T06:17:11;5.70;;;4.47;;
18748;SDS011;9503;53.560;10.246;2022-08-03T06:19:37;6.10;;;3.90;;
18748;SDS011;9503;53.560;10.246;2022-08-03T06:22:04;7.28;;;3.85;;
18748;SDS011;9503;53.560;10.246;2022-08-03T06:24:31;6.68;;;4.05;;
18748;SDS011;9503;53.560;10.246;2022-08-03T06:26:58;4.38;;;3.97;;
18748;SDS011;9503;53.560;10.246;2022-08-03T06:29:26;7.90;;;4.30;;
18748;SDS011;9503;53.560;10.246;2022-08-03T06:31:53;5.95;;;4.25;;
18748;SDS011;9503;53.560;10.246;2022-08-03T06:34:20;6.15;;;4.15;;
18748;SDS011;9503;53.560;10.246;2022-08-03T06:36:46;5.95;;;3.97;;
18748;SDS011;9503;53.560;10.246;2022-08-03T06:39:15;4.38;;;3.95;;
18748;SDS011;9503;53.560;10.246;2022-08-03T06:41:45;5.82;;;3.88;;
18748;SDS011;9503;53.560;10.246;2022-08-03T06:44:12;5.57;;;3.70;;
18748;SDS011;9503;53.560;10.246;2022-08-03T06:46:44;5.60;;;3.28;;
18748;SDS011;9503;53.560;10.246;2022-08-03T06:49:11;3.80;;;3.45;;
18748;SDS011;9503;53.560;10.246;2022-08-03T06:51:38;5.50;;;3.35;;
18748;SDS011;9503;53.560;10.246;2022-08-03T06:54:05;7.50;;;3.72;;
18748;SDS011;9503;53.560;10.246;2022-08-03T06:56:32;5.15;;;3.25;;
18748;SDS011;9503;53.560;10.246;2022-08-03T06:58:58;7.90;;;3.40;;
18748;SDS011;9503;53.560;10.246;2022-08-03T07:01:25;4.25;;;2.88;;
18748;SDS011;9503;53.560;10.246;2022-08-03T07:03:53;3.65;;;3.00;;
18748;SDS011;9503;53.560;10.246;2022-08-03T07:06:20;4.28;;;3.20;;
18748;SDS011;9503;53.560;10.246;2022-08-03T07:08:47;5.60;;;3.10;;
18748;SDS011;9503;53.560;10.246;2022-08-03T07:11:13;5.47;;;3.30;;
18748;SDS011;9503;53.560;10.246;2022-08-03T07:13:40;5.07;;;3.35;;
18748;SDS011;9503;53.560;10.246;2022-08-03T07:16:07;4.57;;;3.92;;
18748;SDS011;9503;53.560;10.246;2022-08-03T07:18:36;4.15;;;3.50;;
18748;SDS011;9503;53.560;10.246;2022-08-03T07:21:05;4.93;;;3.53;;
18748;SDS011;9503;53.560;10.246;2022-08-03T07:23:33;3.55;;;3.25;;
18748;SDS011;9503;53.560;10.246;2022-08-03T07:26:00;5.63;;;3.08;;
18748;SDS011;9503;53.560;10.246;2022-08-03T07:28:26;4.35;;;3.35;;
18748;SDS011;9503;53.560;10.246;2022-08-03T07:30:59;4.28;;;3.75;;
18748;SDS011;9503;53.560;10.246;2022-08-03T07:33:26;6.50;;;3.65;;
18748;SDS011;9503;53.560;10.246;2022-08-03T07:35:53;5.63;;;3.45;;
18748;SDS011;9503;53.560;10.246;2022-08-03T07:38:21;7.53;;;3.55;;
18748;SDS011;9503;53.560;10.246;2022-08-03T07:40:48;6.22;;;3.75;;
18748;SDS011;9503;53.560;10.246;2022-08-03T07:43:14;3.58;;;2.75;;
18748;SDS011;9503;53.560;10.246;2022-08-03T07:45:41;4.30;;;3.45;;
18748;SDS011;9503;53.560;10.246;2022-08-03T07:48:08;3.30;;;2.85;;
18748;SDS011;9503;53.560;10.246;2022-08-03T07:50:35;35.90;;;25.45;;
18748;SDS011;9503;53.560;10.246;2022-08-03T07:53:02;21.70;;;17.98;;
18748;SDS011;9503;53.560;10.246;2022-08-03T07:55:30;4.85;;;3.38;;
18748;SDS011;9503;53.560;10.246;2022-08-03T07:58:00;5.82;;;3.22;;
18748;SDS011;9503;53.560;10.246;2022-08-03T08:00:29;4.78;;;3.38;;
18748;SDS011;9503;53.560;10.246;2022-08-03T08:02:56;5.95;;;4.18;;
18748;SDS011;9503;53.560;10.246;2022-08-03T08:05:23;8.77;;;3.35;;
18748;SDS011;9503;53.560;10.246;2022-08-03T08:07:49;4.28;;;3.10;;
18748;SDS011;9503;53.560;10.246;2022-08-03T08:10:16;4.07;;;3.20;;
18748;SDS011;9503;53.560;10.246;2022-08-03T08:12:45;8.52;;;3.20;;
18748;SDS011;9503;53.560;10.246;2022-08-03T08:15:12;3.25;;;2.90;;
18748;SDS011;9503;53.560;10.246;2022-08-03T08:17:42;6.18;;;3.22;;
18748;SDS011;9503;53.560;10.246;2022-08-03T08:20:10;5.93;;;2.83;;
18748;SDS011;9503;53.560;10.246;2022-08-03T08:22:41;6.75;;;3.25;;
18748;SDS011;9503;53.560;10.246;2022-08-03T08:25:07;5.30;;;2.90;;
18748;SDS011;9503;53.560;10.246;2022-08-03T08:27:39;5.30;;;2.90;;
18748;SDS011;9503;53.560;10.246;2022-08-03T08:30:09;3.60;;;2.63;;
18748;SDS011;9503;53.560;10.246;2022-08-03T08:32:37;2.78;;;2.40;;
18748;SDS011;9503;53.560;10.246;2022-08-03T08:35:04;6.40;;;2.78;;
18748;SDS011;9503;53.560;10.246;2022-08-03T08:37:32;4.70;;;2.33;;
18748;SDS011;9503;53.560;10.246;2022-08-03T08:39:59;4.03;;;2.40;;
18748;SDS011;9503;53.560;10.246;2022-08-03T08:42:26;3.75;;;2.30;;
18748;SDS011;9503;53.560;10.246;2022-08-03T08:44:53;2.60;;;2.40;;
18748;SDS011;9503;53.560;10.246;2022-08-03T08:47:23;6.60;;;2.70;;
18748;SDS011;9503;53.560;10.246;2022-08-03T08:49:51;4.20;;;3.25;;
18748;SDS011;9503;53.560;10.246;2022-08-03T08:52:20;4.13;;;2.22;;
18748;SDS011;9503;53.560;10.246;2022-08-03T08:54:50;10.80;;;6.10;;
18748;SDS011;9503;53.560;10.246;2022-08-03T08:57:19;3.83;;;3.08;;
18748;SDS011;9503;53.560;10.246;2022-08-03T08:59:49;4.88;;;3.25;;
18748;SDS011;9503;53.560;10.246;2022-08-03T09:02:16;7.05;;;2.40;;
18748;SDS011;9503;53.560;10.246;2022-08-03T09:04:44;3.20;;;2.30;;
18748;SDS011;9503;53.560;10.246;2022-08-03T09:07:13;3.67;;;2.20;;
18748;SDS011;9503;53.560;10.246;2022-08-03T09:09:39;5.43;;;2.15;;
18748;SDS011;9503;53.560;10.246;2022-08-03T09:12:06;4.00;;;2.42;;
18748;SDS011;9503;53.560;10.246;2022-08-03T09:14:33;5.75;;;2.63;;
18748;SDS011;9503;53.560;10.246;2022-08-03T09:17:01;3.53;;;2.03;;
18748;SDS011;9503;53.560;10.246;2022-08-03T09:19:29;4.57;;;2.20;;
18748;SDS011;9503;53.560;10.246;2022-08-03T09:22:08;5.07;;;2.30;;
18748;SDS011;9503;53.560;10.246;2022-08-03T09:24:37;2.92;;;2.00;;
18748;SDS011;9503;53.560;10.246;2022-08-03T09:27:19;4.72;;;2.00;;
18748;SDS011;9503;53.560;10.246;2022-08-03T09:29:46;6.35;;;2.30;;
18748;SDS011;9503;53.560;10.246;2022-08-03T09:32:13;3.70;;;2.08;;
18748;SDS011;9503;53.560;10.246;2022-08-03T09:34:40;3.30;;;2.25;;
18748;SDS011;9503;53.560;10.246;2022-08-03T09:37:12;6.10;;;2.35;;
18748;SDS011;9503;53.560;10.246;2022-08-03T09:39:40;4.78;;;2.50;;
18748;SDS011;9503;53.560;10.246;2022-08-03T09:42:07;6.78;;;2.15;;
18748;SDS011;9503;53.560;10.246;2022-08-03T09:44:35;3.33;;;2.08;;
18748;SDS011;9503;53.560;10.246;2022-08-03T09:47:03;2.85;;;2.10;;
18748;SDS011;9503;53.560;10.246;2022-08-03T09:49:31;4.40;;;2.45;;
18748;SDS011;9503;53.560;10.246;2022-08-03T09:52:00;5.95;;;2.33;;
18748;SDS011;9503;53.560;10.246;2022-08-03T09:54:29;4.45;;;1.90;;
18748;SDS011;9503;53.560;10.246;2022-08-03T09:56:58;2.75;;;2.13;;
18748;SDS011;9503;53.560;10.246;2022-08-03T09:59:25;3.90;;;2.40;;
18748;SDS011;9503;53.560;10.246;2022-08-03T10:01:53;6.72;;;2.38;;
18748;SDS011;9503;53.560;10.246;2022-08-03T10:04:22;9.73;;;1.98;;
18748;SDS011;9503;53.560;10.246;2022-08-03T10:07:03;5.70;;;2.40;;
18748;SDS011;9503;53.560;10.246;2022-08-03T10:09:32;5.97;;;2.35;;
18748;SDS011;9503;53.560;10.246;2022-08-03T10:12:09;3.88;;;2.00;;
18748;SDS011;9503;53.560;10.246;2022-08-03T10:14:37;3.35;;;1.88;;
18748;SDS011;9503;53.560;10.246;2022-08-03T10:17:06;5.60;;;2.10;;
18748;SDS011;9503;53.560;10.246;2022-08-03T10:19:33;3.53;;;2.28;;
18748;SDS011;9503;53.560;10.246;2022-08-03T10:22:01;5.93;;;2.50;;
18748;SDS011;9503;53.560;10.246;2022-08-03T10:24:34;6.50;;;2.45;;
18748;SDS011;9503;53.560;10.246;2022-08-03T10:27:03;5.72;;;2.30;;
18748;SDS011;9503;53.560;10.246;2022-08-03T10:29:33;9.05;;;2.55;;
18748;SDS011;9503;53.560;10.246;2022-08-03T10:32:14;8.18;;;2.40;;
18748;SDS011;9503;53.560;10.246;2022-08-03T10:34:45;4.03;;;1.88;;
18748;SDS011;9503;53.560;10.246;2022-08-03T10:37:15;8.60;;;1.98;;
18748;SDS011;9503;53.560;10.246;2022-08-03T10:39:44;8.25;;;2.28;;
18748;SDS011;9503;53.560;10.246;2022-08-03T10:42:22;6.28;;;2.10;;
18748;SDS011;9503;53.560;10.246;2022-08-03T10:44:51;7.68;;;2.40;;
18748;SDS011;9503;53.560;10.246;2022-08-03T10:47:29;4.07;;;2.20;;
18748;SDS011;9503;53.560;10.246;2022-08-03T10:49:57;3.50;;;2.10;;
18748;SDS011;9503;53.560;10.246;2022-08-03T10:52:25;3.83;;;2.33;;
18748;SDS011;9503;53.560;10.246;2022-08-03T10:54:53;7.78;;;2.50;;
18748;SDS011;9503;53.560;10.246;2022-08-03T10:57:41;4.50;;;2.42;;
18748;SDS011;9503;53.560;10.246;2022-08-03T11:00:13;4.75;;;2.10;;
18748;SDS011;9503;53.560;10.246;2022-08-03T11:05:42;3.97;;;2.30;;
18748;SDS011;9503;53.560;10.246;2022-08-03T11:08:23;4.55;;;1.90;;
18748;SDS011;9503;53.560;10.246;2022-08-03T11:10:57;2.08;;;1.80;;
18748;SDS011;9503;53.560;10.246;2022-08-03T11:13:26;10.25;;;2.38;;
18748;SDS011;9503;53.560;10.246;2022-08-03T11:15:56;4.20;;;2.25;;
18748;SDS011;9503;53.560;10.246;2022-08-03T11:18:25;6.28;;;2.25;;
18748;SDS011;9503;53.560;10.246;2022-08-03T11:20:53;6.13;;;2.05;;
18748;SDS011;9503;53.560;10.246;2022-08-03T11:26:17;5.90;;;2.22;;
18748;SDS011;9503;53.560;10.246;2022-08-03T11:28:46;5.07;;;2.30;;
18748;SDS011;9503;53.560;10.246;2022-08-03T11:34:09;4.72;;;2.00;;
18748;SDS011;9503;53.560;10.246;2022-08-03T11:39:37;4.60;;;2.42;;
18748;SDS011;9503;53.560;10.246;2022-08-03T11:45:09;7.70;;;2.33;;
18748;SDS011;9503;53.560;10.246;2022-08-03T11:47:37;6.32;;;2.22;;
18748;SDS011;9503;53.560;10.246;2022-08-03T11:50:05;5.40;;;2.20;;
18748;SDS011;9503;53.560;10.246;2022-08-03T11:52:33;5.57;;;2.10;;
18748;SDS011;9503;53.560;10.246;2022-08-03T11:55:12;6.07;;;2.20;;
18748;SDS011;9503;53.560;10.246;2022-08-03T11:57:41;4.97;;;2.05;;
18748;SDS011;9503;53.560;10.246;2022-08-03T12:00:21;3.22;;;2.00;;
18748;SDS011;9503;53.560;10.246;2022-08-03T12:02:53;4.35;;;2.00;;
18748;SDS011;9503;53.560;10.246;2022-08-03T12:05:34;4.25;;;1.98;;
18748;SDS011;9503;53.560;10.246;2022-08-03T12:08:03;3.97;;;1.98;;
18748;SDS011;9503;53.560;10.246;2022-08-03T12:10:30;3.30;;;1.80;;
18748;SDS011;9503;53.560;10.246;2022-08-03T12:12:57;4.65;;;2.22;;
18748;SDS011;9503;53.560;10.246;2022-08-03T12:15:28;5.78;;;2.47;;
18748;SDS011;9503;53.560;10.246;2022-08-03T12:17:58;1.98;;;1.77;;
18748;SDS011;9503;53.560;10.246;2022-08-03T12:20:29;9.30;;;2.05;;
18748;SDS011;9503;53.560;10.246;2022-08-03T12:23:01;3.50;;;2.10;;
18748;SDS011;9503;53.560;10.246;2022-08-03T12:25:29;4.53;;;2.10;;
18748;SDS011;9503;53.560;10.246;2022-08-03T12:28:05;4.90;;;1.90;;
18748;SDS011;9503;53.560;10.246;2022-08-03T12:30:35;4.82;;;2.05;;
18748;SDS011;9503;53.560;10.246;2022-08-03T12:33:10;5.72;;;2.05;;
18748;SDS011;9503;53.560;10.246;2022-08-03T12:35:41;4.82;;;2.10;;
18748;SDS011;9503;53.560;10.246;2022-08-03T12:38:08;2.22;;;1.88;;
18748;SDS011;9503;53.560;10.246;2022-08-03T12:40:36;4.20;;;1.98;;
18748;SDS011;9503;53.560;10.246;2022-08-03T12:43:13;3.35;;;2.00;;
18748;SDS011;9503;53.560;10.246;2022-08-03T12:45:41;6.03;;;2.30;;
18748;SDS011;9503;53.560;10.246;2022-08-03T12:48:09;2.80;;;1.98;;
18748;SDS011;9503;53.560;10.246;2022-08-03T12:50:38;4.88;;;2.72;;
18748;SDS011;9503;53.560;10.246;2022-08-03T12:53:06;3.30;;;2.35;;
18748;SDS011;9503;53.560;10.246;2022-08-03T12:55:34;5.90;;;2.10;;
18748;SDS011;9503;53.560;10.246;2022-08-03T12:58:03;3.92;;;1.95;;
18748;SDS011;9503;53.560;10.246;2022-08-03T13:00:31;4.45;;;2.30;;
18748;SDS011;9503;53.560;10.246;2022-08-03T13:03:00;7.18;;;2.22;;
18748;SDS011;9503;53.560;10.246;2022-08-03T13:05:29;4.25;;;1.65;;
18748;SDS011;9503;53.560;10.246;2022-08-03T13:07:56;4.40;;;2.00;;
18748;SDS011;9503;53.560;10.246;2022-08-03T13:10:27;8.45;;;2.42;;
18748;SDS011;9503;53.560;10.246;2022-08-03T13:12:55;3.35;;;2.20;;
18748;SDS011;9503;53.560;10.246;2022-08-03T13:15:24;5.78;;;1.90;;
18748;SDS011;9503;53.560;10.246;2022-08-03T13:17:52;3.45;;;1.75;;
18748;SDS011;9503;53.560;10.246;2022-08-03T13:20:21;4.00;;;2.05;;
18748;SDS011;9503;53.560;10.246;2022-08-03T13:22:49;9.52;;;2.08;;
18748;SDS011;9503;53.560;10.246;2022-08-03T13:25:16;2.72;;;1.92;;
18748;SDS011;9503;53.560;10.246;2022-08-03T13:27:44;2.40;;;1.92;;
18748;SDS011;9503;53.560;10.246;2022-08-03T13:30:12;4.80;;;2.15;;
18748;SDS011;9503;53.560;10.246;2022-08-03T13:32:39;8.43;;;2.25;;
18748;SDS011;9503;53.560;10.246;2022-08-03T13:35:07;3.83;;;2.08;;
18748;SDS011;9503;53.560;10.246;2022-08-03T13:37:36;4.75;;;2.03;;
18748;SDS011;9503;53.560;10.246;2022-08-03T13:40:03;3.22;;;1.90;;
18748;SDS011;9503;53.560;10.246;2022-08-03T13:42:32;4.93;;;1.73;;
18748;SDS011;9503;53.560;10.246;2022-08-03T13:45:00;4.40;;;1.90;;
18748;SDS011;9503;53.560;10.246;2022-08-03T13:47:28;4.28;;;1.83;;
18748;SDS011;9503;53.560;10.246;2022-08-03T13:49:55;3.15;;;2.00;;
18748;SDS011;9503;53.560;10.246;2022-08-03T13:52:21;2.85;;;1.90;;
18748;SDS011;9503;53.560;10.246;2022-08-03T13:54:49;4.90;;;2.00;;
18748;SDS011;9503;53.560;10.246;2022-08-03T13:57:16;6.78;;;2.30;;
18748;SDS011;9503;53.560;10.246;2022-08-03T13:59:43;4.22;;;2.08;;
18748;SDS011;9503;53.560;10.246;2022-08-03T14:02:10;4.22;;;1.90;;
18748;SDS011;9503;53.560;10.246;2022-08-03T14:04:37;4.57;;;1.90;;
18748;SDS011;9503;53.560;10.246;2022-08-03T14:07:04;3.17;;;2.00;;
18748;SDS011;9503;53.560;10.246;2022-08-03T14:09:30;3.15;;;2.28;;
18748;SDS011;9503;53.560;10.246;2022-08-03T14:11:59;5.85;;;2.45;;
18748;SDS011;9503;53.560;10.246;2022-08-03T14:14:26;3.25;;;1.98;;
18748;SDS011;9503;53.560;10.246;2022-08-03T14:16:52;2.22;;;1.90;;
18748;SDS011;9503;53.560;10.246;2022-08-03T14:19:19;6.85;;;2.60;;
18748;SDS011;9503;53.560;10.246;2022-08-03T14:21:46;4.22;;;2.08;;
18748;SDS011;9503;53.560;10.246;2022-08-03T14:24:13;6.22;;;2.25;;
18748;SDS011;9503;53.560;10.246;2022-08-03T14:26:40;4.45;;;1.88;;
18748;SDS011;9503;53.560;10.246;2022-08-03T14:29:08;7.28;;;2.28;;
18748;SDS011;9503;53.560;10.246;2022-08-03T14:31:35;3.90;;;1.92;;
18748;SDS011;9503;53.560;10.246;2022-08-03T14:34:02;3.20;;;1.83;;
18748;SDS011;9503;53.560;10.246;2022-08-03T14:36:29;3.03;;;2.05;;
18748;SDS011;9503;53.560;10.246;2022-08-03T14:38:56;4.97;;;1.90;;
18748;SDS011;9503;53.560;10.246;2022-08-03T14:41:23;6.55;;;2.30;;
18748;SDS011;9503;53.560;10.246;2022-08-03T14:43:49;4.30;;;2.20;;
18748;SDS011;9503;53.560;10.246;2022-08-03T14:46:18;6.32;;;2.25;;
18748;SDS011;9503;53.560;10.246;2022-08-03T14:48:44;7.05;;;2.53;;
18748;SDS011;9503;53.560;10.246;2022-08-03T14:51:11;8.07;;;2.20;;
18748;SDS011;9503;53.560;10.246;2022-08-03T14:53:38;3.47;;;2.00;;
18748;SDS011;9503;53.560;10.246;2022-08-03T14:56:05;4.35;;;2.10;;
18748;SDS011;9503;53.560;10.246;2022-08-03T14:58:32;5.00;;;1.92;;
18748;SDS011;9503;53.560;10.246;2022-08-03T15:00:59;4.55;;;2.13;;
18748;SDS011;9503;53.560;10.246;2022-08-03T15:03:27;3.20;;;2.05;;
18748;SDS011;9503;53.560;10.246;2022-08-03T15:05:55;3.83;;;1.98;;
18748;SDS011;9503;53.560;10.246;2022-08-03T15:08:23;4.80;;;2.30;;
18748;SDS011;9503;53.560;10.246;2022-08-03T15:10:51;5.25;;;1.80;;
18748;SDS011;9503;53.560;10.246;2022-08-03T15:13:27;5.47;;;2.10;;